메인 페이지
METAR-TAF:

METAR-TAF

공항 :

로스앤젤레스, 캘리포니아, 미국

로스앤젤레스 국제공항

위도: 33-56-17N, 경도: 118-23-20W, 고도: 38m

현재 날씨관측

예보는 41분 전, 09:59시(UTC)에 발표되었습니다.
무풍
온도 13°C
습도 88%
기압 1018 hPa
시정: 12.9km
고도 1100ft 상공 흐림

METAR: KLAX 250959Z 00000KT 8SM OVC011 13/11 A3006 RMK AO2 T01280106

시각: 03:40 (10:40 UTC)

예보

예보는 1 시간 25분 전, 09:15시(UTC)에 발표되었습니다.
예보 대상 시간: 25일 09시부터 26일 12시까지 (UTC)
여러 방향의 바람 3kt
시정: 10km
고도 700ft 상공 흐림
25일 1800시부터 (UTC)
5kt
시정: 9.7km
고도 1000ft 상공 구름 보통
연무
25일 2000시부터 (UTC)
12kt
시정: 10km
고도 1500ft 상공 구름 조금
26일 0700시부터 (UTC)
6kt
시정: 10km
고도 1000ft 상공 구름 많음

TAF: KLAX 250915Z 2509/2612 VRB03KT P6SM OVC007 FM251800 26005KT 6SM HZ SCT010 FM252000 26012KT P6SM FEW015 FM260700 26006KT P6SM BKN010

4,000개 이상의 공항 관측 자료 및 예보 (METAR 및 TAF 보고).

지도상에서 검색 가능한 기상관측소가 노란 점과 빨간 점으로 표시되어 있습니다.

기상관측소 명을 보려면 표시 위로 마우스를 이동하세요.

날씨 관측과 예보를 보려면 클릭하세요.

지도 변경 : 확대하려면 엑스 표시가 있는 녹색 버튼, 축소하려면 빼기 표시가 있는 녹색 버튼, 다음 페이지의 지도를 보려면 녹색 화살표를 클릭하세요.


METAR-TAF: